createdAt,value
2018-04-19T00:01:11.869Z,7.15
2018-04-19T00:06:15.644Z,6.60
2018-04-19T00:11:20.462Z,6.43
2018-04-19T00:16:23.765Z,7.57
2018-04-19T00:21:26.571Z,7.40
2018-04-19T00:26:29.412Z,7.30
2018-04-19T00:31:32.264Z,6.53
2018-04-19T00:36:38.653Z,7.80
2018-04-19T00:41:43.389Z,7.40
2018-04-19T00:46:50.572Z,7.95
2018-04-19T00:51:53.516Z,8.27
2018-04-19T00:57:00.336Z,8.00
2018-04-19T01:02:06.644Z,7.95
2018-04-19T01:07:15.644Z,7.93
2018-04-19T01:12:21.427Z,8.30
2018-04-19T01:17:27.810Z,8.00
2018-04-19T01:22:32.377Z,8.60
2018-04-19T01:27:36.048Z,9.80
2018-04-19T01:32:43.882Z,8.50
2018-04-19T01:37:46.964Z,8.48
2018-04-19T01:42:49.803Z,9.00
2018-04-19T01:47:53.367Z,8.83
2018-04-19T01:52:56.999Z,9.43
2018-04-19T01:57:59.825Z,10.03
2018-04-19T02:03:02.784Z,9.95
2018-04-19T02:08:05.787Z,10.48
2018-04-19T02:13:08.695Z,10.65
2018-04-19T02:18:11.471Z,10.80
2018-04-19T02:23:17.258Z,10.20
2018-04-19T02:28:20.407Z,10.45
2018-04-19T02:33:23.599Z,9.95
2018-04-19T02:38:26.436Z,8.82
2018-04-19T02:43:29.229Z,9.32
2018-04-19T02:48:32.012Z,9.02
2018-04-19T02:53:34.782Z,10.00
2018-04-19T02:58:37.580Z,10.05
2018-04-19T03:03:40.414Z,10.27
2018-04-19T03:08:43.236Z,11.15
2018-04-19T03:13:46.781Z,9.43
2018-04-19T03:18:49.699Z,9.30
2018-04-19T03:23:52.480Z,11.20
2018-04-19T03:28:55.443Z,11.77
2018-04-19T03:33:58.479Z,10.27
2018-04-19T03:39:01.271Z,10.60
2018-04-19T03:44:05.559Z,10.55
2018-04-19T03:49:09.340Z,10.85
2018-04-19T03:54:12.282Z,10.50
2018-04-19T03:59:15.197Z,11.55
2018-04-19T04:04:18.481Z,10.45
2018-04-19T04:09:21.393Z,10.68
2018-04-19T04:14:24.206Z,10.77
2018-04-19T04:19:38.838Z,10.60
2018-04-19T04:24:41.641Z,10.37
2018-04-19T04:29:44.480Z,10.32
2018-04-19T04:34:47.284Z,10.95
2018-04-19T04:39:50.090Z,10.73
2018-04-19T04:44:52.956Z,11.10
2018-04-19T04:49:55.751Z,10.15
2018-04-19T04:54:58.539Z,9.80
2018-04-19T05:00:02.108Z,11.37
2018-04-19T05:05:05.691Z,10.53
2018-04-19T05:10:08.488Z,9.20
2018-04-19T05:15:11.270Z,9.50
2018-04-19T05:20:14.840Z,9.30
2018-04-19T05:25:17.629Z,11.38
2018-04-19T05:30:20.494Z,10.10
2018-04-19T05:35:23.274Z,9.63
2018-04-19T05:40:26.083Z,10.10
2018-04-19T05:45:28.925Z,8.95
2018-04-19T05:50:31.733Z,7.90
2018-04-19T05:55:34.528Z,8.75
2018-04-19T06:00:37.393Z,8.25
2018-04-19T06:05:40.174Z,7.20
2018-04-19T06:10:42.986Z,7.80
2018-04-19T06:15:45.822Z,7.50
2018-04-19T06:20:48.647Z,7.30
2018-04-19T06:25:52.275Z,8.10
2018-04-19T06:30:55.849Z,8.13
2018-04-19T06:35:58.777Z,8.10
2018-04-19T06:41:01.613Z,9.02
2018-04-19T06:46:04.432Z,8.10
2018-04-19T06:51:07.254Z,7.82
2018-04-19T06:56:10.070Z,7.80
2018-04-19T07:01:12.856Z,8.23
2018-04-19T07:06:15.665Z,8.20
2018-04-19T07:11:18.465Z,7.40
2018-04-19T07:16:21.346Z,8.73
2018-04-19T07:21:24.308Z,8.30
2018-04-19T07:26:27.132Z,8.52
2018-04-19T07:31:30.016Z,8.10
2018-04-19T07:36:32.820Z,7.90
2018-04-19T07:41:35.650Z,7.83
2018-04-19T07:46:38.428Z,7.72
2018-04-19T07:51:41.358Z,7.15
2018-04-19T07:56:44.182Z,8.00
2018-04-19T08:01:46.976Z,7.80
2018-04-19T08:06:49.763Z,7.20
2018-04-19T08:11:52.669Z,7.30
2018-04-19T08:16:55.462Z,7.57
2018-04-19T08:21:58.260Z,7.90
2018-04-19T08:27:01.076Z,7.75
2018-04-19T08:32:03.933Z,7.20
2018-04-19T08:37:06.949Z,7.45
2018-04-19T08:42:09.923Z,8.05
2018-04-19T08:47:12.834Z,7.20
2018-04-19T08:52:15.789Z,7.30
2018-04-19T08:57:18.593Z,6.90
2018-04-19T09:02:21.446Z,6.80
2018-04-19T09:07:24.247Z,5.80
2018-04-19T09:12:27.060Z,6.10
2018-04-19T09:17:29.904Z,5.70
2018-04-19T09:22:33.563Z,5.85
2018-04-19T09:27:36.348Z,6.60
2018-04-19T09:32:39.143Z,5.17
2018-04-19T09:37:41.948Z,5.05
2018-04-19T09:42:44.746Z,4.67
2018-04-19T09:47:47.690Z,4.87
2018-04-19T09:52:50.472Z,4.43
2018-04-19T09:58:05.724Z,4.50
2018-04-19T10:03:24.036Z,4.40
2018-04-19T10:08:26.856Z,4.10
2018-04-19T10:13:29.674Z,4.20
2018-04-19T10:18:33.296Z,4.60
2018-04-19T10:23:36.891Z,4.40
2018-04-19T10:28:39.720Z,4.12
2018-04-19T10:33:43.305Z,4.50
2018-04-19T10:38:46.092Z,4.10
2018-04-19T10:43:48.877Z,4.20
2018-04-19T10:48:51.672Z,4.00
2018-04-19T10:53:54.475Z,4.40
2018-04-19T10:58:57.293Z,3.85
2018-04-19T11:04:00.291Z,3.85
2018-04-19T11:09:03.223Z,3.53
2018-04-19T11:14:07.674Z,3.47
2018-04-19T11:19:11.243Z,3.90
2018-04-19T11:24:14.233Z,4.00
2018-04-19T11:29:17.097Z,3.58
2018-04-19T11:34:20.669Z,4.57
2018-04-19T11:39:23.512Z,3.33
2018-04-19T11:44:27.100Z,3.70
2018-04-19T11:49:29.904Z,3.80
2018-04-19T11:54:32.784Z,3.40
2018-04-19T11:59:35.728Z,3.50
2018-04-19T12:04:38.528Z,3.10
2018-04-19T12:09:42.127Z,3.20
2018-04-19T12:14:44.930Z,3.20
2018-04-19T12:19:47.798Z,3.00
2018-04-19T12:24:50.808Z,3.15
2018-04-19T12:29:53.729Z,3.10
2018-04-19T12:34:56.567Z,3.70
2018-04-19T12:39:59.388Z,3.50
2018-04-19T12:45:02.179Z,2.90
2018-04-19T12:50:04.994Z,3.20
2018-04-19T12:55:07.768Z,3.40
2018-04-19T13:00:11.351Z,2.60
2018-04-19T13:05:14.197Z,2.92
2018-04-19T13:10:16.999Z,2.90
2018-04-19T13:15:19.820Z,2.75
2018-04-19T13:20:22.608Z,2.90
2018-04-19T13:25:25.432Z,2.45
2018-04-19T13:30:28.465Z,2.70
2018-04-19T13:35:31.260Z,2.70
2018-04-19T13:40:34.077Z,3.10
2018-04-19T13:45:36.946Z,2.60
2018-04-19T13:50:39.840Z,2.60
2018-04-19T13:55:42.652Z,2.58
2018-04-19T14:00:45.468Z,2.60
2018-04-19T14:05:48.370Z,2.50
2018-04-19T14:10:51.169Z,2.40
2018-04-19T14:15:54.066Z,2.70
2018-04-19T14:20:57.003Z,2.20
2018-04-19T14:26:00.558Z,2.70
2018-04-19T14:31:03.423Z,2.37
2018-04-19T14:36:07.163Z,2.20
2018-04-19T14:41:10.039Z,2.10
2018-04-19T14:46:13.610Z,2.37
2018-04-19T14:51:16.429Z,2.40
2018-04-19T14:56:19.335Z,2.20
2018-04-19T15:01:22.239Z,2.10
2018-04-19T15:06:25.127Z,2.10
2018-04-19T15:11:27.995Z,2.40
2018-04-19T15:16:30.795Z,2.40
2018-04-19T15:21:33.599Z,2.50
2018-04-19T15:26:36.403Z,2.40
2018-04-19T15:31:39.226Z,2.15
2018-04-19T15:36:42.002Z,2.20
2018-04-19T15:41:44.826Z,2.50
2018-04-19T15:46:47.633Z,2.50
2018-04-19T15:51:50.548Z,2.50
2018-04-19T15:56:53.367Z,2.03
2018-04-19T16:01:56.970Z,2.33
2018-04-19T16:07:00.597Z,2.30
2018-04-19T16:12:04.193Z,2.20
2018-04-19T16:17:07.019Z,2.60
2018-04-19T16:22:10.615Z,2.90
2018-04-19T16:27:13.427Z,2.70
2018-04-19T16:32:17.121Z,2.63
2018-04-19T16:37:20.048Z,2.60
2018-04-19T16:42:23.691Z,2.20
2018-04-19T16:47:26.588Z,2.70
2018-04-19T16:52:29.403Z,2.60
2018-04-19T16:57:32.177Z,3.00
2018-04-19T17:02:35.921Z,2.30
2018-04-19T17:07:39.464Z,2.10
2018-04-19T17:12:43.180Z,2.40
2018-04-19T17:17:46.316Z,2.70
2018-04-19T17:22:49.557Z,2.78
2018-04-19T17:27:52.437Z,2.90
2018-04-19T17:32:55.214Z,2.33
2018-04-19T17:37:58.093Z,2.80
2018-04-19T17:43:00.942Z,10.43
2018-04-19T17:48:03.792Z,6.20
2018-04-19T17:53:06.643Z,4.60
2018-04-19T17:58:09.454Z,3.57
2018-04-19T18:03:12.236Z,2.70
2018-04-19T18:08:15.047Z,2.90
2018-04-19T18:13:17.903Z,3.30
2018-04-19T18:18:20.842Z,2.80
2018-04-19T18:23:23.635Z,3.10
2018-04-19T18:28:26.572Z,3.12
2018-04-19T18:33:29.388Z,5.97
2018-04-19T18:38:32.287Z,4.32
2018-04-19T18:43:35.088Z,4.93
2018-04-19T18:48:37.885Z,5.07
2018-04-19T18:53:41.523Z,5.70
2018-04-19T18:58:44.328Z,5.05
2018-04-19T19:03:47.234Z,4.57
2018-04-19T19:08:50.515Z,5.40
2018-04-19T19:13:54.701Z,4.45
2018-04-19T19:19:09.272Z,3.53
2018-04-19T19:24:12.125Z,3.60
2018-04-19T19:29:15.079Z,4.30
2018-04-19T19:34:17.888Z,3.50
2018-04-19T19:39:20.811Z,3.20
2018-04-19T19:44:24.409Z,3.70
2018-04-19T19:49:27.363Z,3.30
2018-04-19T19:54:30.180Z,3.53
2018-04-19T19:59:33.007Z,3.30
2018-04-19T20:04:35.818Z,3.50
2018-04-19T20:09:38.611Z,3.80
2018-04-19T20:14:41.529Z,4.10
2018-04-19T20:19:45.323Z,3.92
2018-04-19T20:24:48.118Z,4.20
2018-04-19T20:29:50.895Z,4.20
2018-04-19T20:34:53.719Z,4.30
2018-04-19T20:39:56.504Z,4.70
2018-04-19T20:44:59.291Z,4.10
2018-04-19T20:50:02.149Z,4.28
2018-04-19T20:55:05.732Z,5.00
2018-04-19T21:00:08.533Z,5.35
2018-04-19T21:05:11.321Z,4.78
2018-04-19T21:10:14.155Z,5.35
2018-04-19T21:15:17.096Z,4.70
2018-04-19T21:20:19.889Z,5.40
2018-04-19T21:25:22.716Z,5.40
2018-04-19T21:30:25.594Z,5.25
2018-04-19T21:35:28.371Z,5.00
2018-04-19T21:40:31.955Z,5.03
2018-04-19T21:45:34.764Z,5.32
2018-04-19T21:50:37.555Z,5.20
2018-04-19T21:55:40.330Z,5.30
2018-04-19T22:00:43.160Z,5.50
2018-04-19T22:05:46.100Z,5.20
2018-04-19T22:10:48.996Z,5.40
2018-04-19T22:15:52.631Z,5.40
2018-04-19T22:20:55.477Z,5.30
2018-04-19T22:25:58.283Z,5.10
2018-04-19T22:31:01.085Z,5.45
2018-04-19T22:36:04.718Z,5.50
2018-04-19T22:41:08.867Z,5.75
2018-04-19T22:46:12.740Z,5.32
2018-04-19T22:51:15.607Z,5.55
2018-04-19T22:56:18.676Z,6.03
2018-04-19T23:01:22.215Z,5.63
2018-04-19T23:06:25.186Z,5.80
2018-04-19T23:11:28.018Z,12.68
2018-04-19T23:16:32.152Z,13.48
2018-04-19T23:21:35.700Z,6.80
2018-04-19T23:26:39.101Z,5.78
2018-04-19T23:31:42.149Z,5.80
2018-04-19T23:36:44.955Z,5.70
2018-04-19T23:41:47.856Z,5.90
2018-04-19T23:46:51.446Z,5.25
2018-04-19T23:51:55.716Z,5.50
2018-04-19T23:57:00.805Z,5.60
